createdAt,value
2018-10-18T00:02:26.860Z,101715.63
2018-10-18T00:04:55.231Z,101723.23
2018-10-18T00:07:23.371Z,101717.70
2018-10-18T00:09:51.499Z,101723.81
2018-10-18T00:12:19.754Z,101724.04
2018-10-18T00:14:47.876Z,101724.78
2018-10-18T00:17:21.532Z,101722.97
2018-10-18T00:19:49.659Z,101722.61
2018-10-18T00:22:17.799Z,101721.41
2018-10-18T00:24:45.939Z,101723.08
2018-10-18T00:27:14.325Z,101714.61
2018-10-18T00:29:42.444Z,101718.61
2018-10-18T00:32:10.843Z,101718.88
2018-10-18T00:34:39.151Z,101720.36
2018-10-18T00:37:07.511Z,101720.63
2018-10-18T00:39:35.656Z,101722.22
2018-10-18T00:42:05.101Z,101723.61
2018-10-18T00:44:34.493Z,101726.00
2018-10-18T00:47:02.633Z,101733.31
2018-10-18T00:49:30.958Z,101736.46
2018-10-18T00:51:59.083Z,101732.05
2018-10-18T00:54:27.231Z,101733.64
2018-10-18T00:56:55.366Z,101731.25
2018-10-18T00:59:23.528Z,101731.94
2018-10-18T01:01:51.930Z,101730.85
2018-10-18T01:04:20.095Z,101737.04
2018-10-18T01:06:48.356Z,101742.41
2018-10-18T01:09:16.488Z,101738.00
2018-10-18T01:11:44.819Z,101729.53
2018-10-18T01:14:13.349Z,101732.41
2018-10-18T01:16:41.542Z,101728.11
2018-10-18T01:19:09.668Z,101728.69
2018-10-18T01:21:38.991Z,101731.31
2018-10-18T01:24:07.579Z,101731.20
2018-10-18T01:26:35.704Z,101730.27
2018-10-18T01:29:03.831Z,101728.45
2018-10-18T01:31:31.975Z,101734.22
2018-10-18T01:34:00.219Z,101737.20
2018-10-18T01:36:28.583Z,101742.47
2018-10-18T01:38:56.720Z,101737.59
2018-10-18T01:41:25.032Z,101742.47
2018-10-18T01:43:53.186Z,101733.95
2018-10-18T01:46:21.311Z,101742.47
2018-10-18T01:48:53.392Z,101736.73
2018-10-18T01:51:21.528Z,101737.75
2018-10-18T01:53:49.643Z,101742.27
2018-10-18T01:56:17.772Z,101740.69
2018-10-18T01:58:45.903Z,101740.98
2018-10-18T02:01:14.237Z,101743.56
2018-10-18T02:03:42.598Z,101742.20
2018-10-18T02:06:10.845Z,101739.08
2018-10-18T02:08:38.918Z,101736.83
2018-10-18T02:11:07.292Z,101739.45
2018-10-18T02:13:35.564Z,101736.78
2018-10-18T02:16:03.876Z,101742.45
2018-10-18T02:18:32.103Z,101745.73
2018-10-18T02:21:00.324Z,101747.78
2018-10-18T02:23:28.448Z,101751.48
2018-10-18T02:25:56.816Z,101746.97
2018-10-18T02:28:25.576Z,101750.17
2018-10-18T02:30:53.696Z,101747.43
2018-10-18T02:33:21.892Z,101752.69
2018-10-18T02:35:50.154Z,101755.44
2018-10-18T02:38:18.288Z,101756.08
2018-10-18T02:40:46.416Z,101751.80
2018-10-18T02:43:14.816Z,101757.00
2018-10-18T02:45:42.952Z,101758.94
2018-10-18T02:48:11.093Z,101757.62
2018-10-18T02:50:39.208Z,101760.66
2018-10-18T02:53:07.339Z,101757.46
2018-10-18T02:55:35.480Z,101756.66
2018-10-18T02:58:03.718Z,101754.53
2018-10-18T03:00:31.897Z,101751.27
2018-10-18T03:03:00.028Z,101749.95
2018-10-18T03:05:28.653Z,101749.63
2018-10-18T03:07:57.016Z,101750.84
2018-10-18T03:10:25.428Z,101746.82
2018-10-18T03:13:12.837Z,101750.77
2018-10-18T03:15:40.977Z,101747.96
2018-10-18T03:18:09.378Z,101750.02
2018-10-18T03:20:37.656Z,101753.19
2018-10-18T03:23:05.783Z,101763.84
2018-10-18T03:25:34.724Z,101762.42
2018-10-18T03:28:03.437Z,101762.45
2018-10-18T03:30:31.517Z,101762.83
2018-10-18T03:32:59.651Z,101759.38
2018-10-18T03:35:27.779Z,101771.84
2018-10-18T03:37:55.918Z,101770.83
2018-10-18T03:40:24.378Z,101766.04
2018-10-18T03:42:52.502Z,101757.98
2018-10-18T03:45:20.629Z,101761.53
2018-10-18T03:47:48.903Z,101761.36
2018-10-18T03:50:17.795Z,101761.72
2018-10-18T03:52:45.980Z,101762.67
2018-10-18T03:55:14.115Z,101764.55
2018-10-18T03:57:42.239Z,101764.26
2018-10-18T04:00:10.467Z,101752.47
2018-10-18T04:02:38.532Z,101759.66
2018-10-18T04:05:07.225Z,101760.79
2018-10-18T04:07:35.359Z,101768.47
2018-10-18T04:10:03.523Z,101768.78
2018-10-18T04:12:32.545Z,101770.92
2018-10-18T04:15:01.305Z,101766.41
2018-10-18T04:17:29.480Z,101774.08
2018-10-18T04:19:57.613Z,101775.56
2018-10-18T04:22:25.912Z,101787.73
2018-10-18T04:24:54.268Z,101782.22
2018-10-18T04:27:22.644Z,101781.47
2018-10-18T04:29:51.023Z,101776.28
2018-10-18T04:32:19.403Z,101782.92
2018-10-18T04:34:47.532Z,101778.03
2018-10-18T04:37:15.953Z,101783.28
2018-10-18T04:39:43.983Z,101781.20
2018-10-18T04:42:12.164Z,101782.77
2018-10-18T04:44:40.251Z,101784.94
2018-10-18T04:47:08.429Z,101775.38
2018-10-18T04:49:37.420Z,101783.13
2018-10-18T04:52:05.770Z,101785.09
2018-10-18T04:54:33.927Z,101787.72
2018-10-18T04:57:02.448Z,101793.25
2018-10-18T04:59:30.585Z,101787.16
2018-10-18T05:01:58.708Z,101787.00
2018-10-18T05:04:26.862Z,101788.67
2018-10-18T05:06:55.170Z,101786.61
2018-10-18T05:09:23.551Z,101789.63
2018-10-18T05:11:51.933Z,101790.17
2018-10-18T05:14:20.068Z,101788.87
2018-10-18T05:16:48.270Z,101791.55
2018-10-18T05:19:16.496Z,101793.41
2018-10-18T05:21:44.824Z,101799.20
2018-10-18T05:24:13.532Z,101796.77
2018-10-18T05:26:41.654Z,101792.09
2018-10-18T05:29:09.780Z,101791.02
2018-10-18T05:31:40.867Z,101792.89
2018-10-18T05:34:08.952Z,101792.67
2018-10-18T05:36:52.487Z,101798.66
2018-10-18T05:39:20.926Z,101802.38
2018-10-18T05:41:49.226Z,101797.59
2018-10-18T05:44:17.341Z,101805.55
2018-10-18T05:46:45.557Z,101809.92
2018-10-18T05:49:13.718Z,101816.38
2018-10-18T05:51:41.812Z,101815.47
2018-10-18T05:54:10.985Z,101816.99
2018-10-18T05:56:39.605Z,101819.33
2018-10-18T05:59:07.747Z,101816.86
2018-10-18T06:01:36.079Z,101825.84
2018-10-18T06:04:05.128Z,101823.41
2018-10-18T06:06:33.268Z,101826.60
2018-10-18T06:09:01.380Z,101824.38
2018-10-18T06:11:31.088Z,101828.22
2018-10-18T06:13:59.351Z,101835.89
2018-10-18T06:16:27.587Z,101834.58
2018-10-18T06:18:55.838Z,101841.64
2018-10-18T06:21:24.496Z,101837.77
2018-10-18T06:23:52.616Z,101838.33
2018-10-18T06:26:21.279Z,101841.91
2018-10-18T06:28:50.144Z,101847.45
2018-10-18T06:31:18.792Z,101854.67
2018-10-18T06:33:47.112Z,101859.76
2018-10-18T06:36:15.236Z,101861.89
2018-10-18T06:38:43.591Z,101860.22
2018-10-18T06:41:11.847Z,101862.84
2018-10-18T06:43:41.045Z,101870.75
2018-10-18T06:46:11.184Z,101877.28
2018-10-18T06:48:39.728Z,101870.13
2018-10-18T06:51:08.203Z,101874.30
2018-10-18T06:53:36.360Z,101875.16
2018-10-18T06:56:04.863Z,101872.08
2018-10-18T06:58:32.996Z,101872.10
2018-10-18T07:01:01.412Z,101874.66
2018-10-18T07:03:29.771Z,101880.72
2018-10-18T07:05:57.948Z,101880.72
2018-10-18T07:08:27.692Z,101884.61
2018-10-18T07:10:56.011Z,101891.03
2018-10-18T07:13:24.260Z,101885.98
2018-10-18T07:15:52.412Z,101881.20
2018-10-18T07:18:20.996Z,101886.30
2018-10-18T07:20:49.377Z,101888.92
2018-10-18T07:23:17.755Z,101893.62
2018-10-18T07:25:46.184Z,101892.45
2018-10-18T07:28:14.532Z,101890.52
2018-10-18T07:30:42.652Z,101900.72
2018-10-18T07:33:10.968Z,101898.03
2018-10-18T07:35:39.350Z,101898.79
2018-10-18T07:38:07.487Z,101904.50
2018-10-18T07:40:35.796Z,101898.80
2018-10-18T07:43:03.911Z,101903.33
2018-10-18T07:45:32.255Z,101911.76
2018-10-18T07:48:00.930Z,101911.05
2018-10-18T07:50:29.049Z,101906.16
2018-10-18T07:52:57.195Z,101903.73
2018-10-18T07:55:25.316Z,101912.26
2018-10-18T07:57:53.520Z,101911.89
2018-10-18T08:00:21.778Z,101914.13
2018-10-18T08:02:49.968Z,101908.72
2018-10-18T08:05:18.097Z,101908.16
2018-10-18T08:07:46.422Z,101915.18
2018-10-18T08:10:15.798Z,101915.08
2018-10-18T08:12:43.931Z,101909.20
2018-10-18T08:15:13.703Z,101912.30
2018-10-18T08:17:42.656Z,101911.63
2018-10-18T08:20:11.761Z,101913.05
2018-10-18T08:22:40.561Z,101915.40
2018-10-18T08:25:09.703Z,101915.50
2018-10-18T08:27:38.228Z,101915.98
2018-10-18T08:30:09.175Z,101916.00
2018-10-18T08:32:37.323Z,101924.91
2018-10-18T08:35:06.950Z,101920.04
2018-10-18T08:37:35.096Z,101921.30
2018-10-18T08:40:03.224Z,101917.70
2018-10-18T08:42:31.395Z,101922.86
2018-10-18T08:44:59.540Z,101923.44
2018-10-18T08:47:27.668Z,101920.49
2018-10-18T08:49:55.937Z,101918.15
2018-10-18T08:52:24.271Z,101918.44
2018-10-18T08:54:52.695Z,101925.09
2018-10-18T08:57:20.823Z,101930.88
2018-10-18T08:59:49.108Z,101929.47
2018-10-18T09:02:17.224Z,101934.44
2018-10-18T09:04:45.748Z,101934.44
2018-10-18T09:07:20.485Z,101938.24
2018-10-18T09:09:48.776Z,101940.41
2018-10-18T09:12:16.932Z,101941.00
2018-10-18T09:14:45.060Z,101938.47
2018-10-18T09:17:13.207Z,101944.81
2018-10-18T09:19:41.352Z,101946.69
2018-10-18T09:22:09.744Z,101948.07
2018-10-18T09:24:38.140Z,101954.08
2018-10-18T09:27:06.277Z,101960.66
2018-10-18T09:29:34.564Z,101961.38
2018-10-18T09:32:02.949Z,101968.30
2018-10-18T09:34:31.078Z,101964.77
2018-10-18T09:36:59.420Z,101966.98
2018-10-18T09:39:27.514Z,101967.48
2018-10-18T09:41:55.645Z,101964.41
2018-10-18T09:44:24.469Z,101964.48
2018-10-18T09:46:52.523Z,101969.41
2018-10-18T09:49:20.645Z,101969.17
2018-10-18T09:51:48.782Z,101971.32
2018-10-18T09:54:16.958Z,101968.91
2018-10-18T09:56:45.344Z,101975.03
2018-10-18T09:59:13.448Z,101973.25
2018-10-18T10:01:47.651Z,101973.07
2018-10-18T10:04:15.886Z,101978.02
2018-10-18T10:06:44.923Z,101982.70
2018-10-18T10:09:13.531Z,101980.00
2018-10-18T10:11:41.669Z,101981.96
2018-10-18T10:14:09.796Z,101986.08
2018-10-18T10:16:37.918Z,101985.63
2018-10-18T10:19:06.107Z,101995.86
2018-10-18T10:21:34.206Z,101992.66
2018-10-18T10:24:02.324Z,101997.96
2018-10-18T10:26:30.440Z,101992.42
2018-10-18T10:28:58.564Z,101991.20
2018-10-18T10:31:26.680Z,101991.45
2018-10-18T10:33:54.800Z,101992.09
2018-10-18T10:36:22.956Z,101991.73
2018-10-18T10:38:51.065Z,101991.56
2018-10-18T10:41:19.184Z,101992.59
2018-10-18T10:43:47.308Z,101986.77
2018-10-18T10:46:15.512Z,101994.30
2018-10-18T10:48:43.552Z,101989.50
2018-10-18T10:51:12.409Z,101993.16
2018-10-18T10:53:40.432Z,101989.28
2018-10-18T10:56:08.630Z,101993.14
2018-10-18T10:58:36.689Z,101995.56
2018-10-18T11:01:14.172Z,101995.28
2018-10-18T11:03:43.056Z,101991.08
2018-10-18T11:06:11.491Z,101988.53
2018-10-18T11:08:39.588Z,101991.66
2018-10-18T11:11:08.092Z,101989.39
2018-10-18T11:13:36.220Z,101991.06
2018-10-18T11:16:05.612Z,101985.05
2018-10-18T11:18:36.020Z,101990.34
2018-10-18T11:21:05.784Z,101987.30
2018-10-18T11:23:34.440Z,101984.23
2018-10-18T11:26:02.985Z,101983.42
2018-10-18T11:28:31.111Z,101981.53
2018-10-18T11:30:59.241Z,101987.53
2018-10-18T11:33:27.950Z,101982.29
2018-10-18T11:35:56.128Z,101978.62
2018-10-18T11:38:24.236Z,101982.10
2018-10-18T11:40:52.352Z,101986.74
2018-10-18T11:43:20.532Z,101982.14
2018-10-18T11:45:48.651Z,101984.83
2018-10-18T11:48:17.060Z,101987.33
2018-10-18T11:50:45.381Z,101985.89
2018-10-18T11:53:13.507Z,101983.45
2018-10-18T11:55:41.648Z,101980.95
2018-10-18T11:58:10.641Z,101974.11
2018-10-18T12:00:38.851Z,101979.65
2018-10-18T12:03:06.996Z,101975.79
2018-10-18T12:05:35.192Z,101971.56
2018-10-18T12:08:03.621Z,101967.52
2018-10-18T12:10:31.687Z,101972.22
2018-10-18T12:13:07.191Z,101970.95
2018-10-18T12:15:35.320Z,101973.69
2018-10-18T12:18:04.663Z,101967.58
2018-10-18T12:20:32.772Z,101971.06
2018-10-18T12:23:00.940Z,101973.27
2018-10-18T12:25:29.016Z,101967.30
2018-10-18T12:27:57.156Z,101962.39
2018-10-18T12:30:25.268Z,101967.84
2018-10-18T12:32:53.391Z,101969.47
2018-10-18T12:35:21.550Z,101977.08
2018-10-18T12:37:49.688Z,101975.67
2018-10-18T12:40:17.853Z,101970.17
2018-10-18T12:42:47.259Z,101974.36
2018-10-18T12:45:15.385Z,101973.83
2018-10-18T12:47:43.536Z,101972.80
2018-10-18T12:50:11.732Z,101964.28
2018-10-18T12:52:40.116Z,101962.14
2018-10-18T12:55:08.264Z,101962.69
2018-10-18T12:57:36.400Z,101962.00
2018-10-18T13:00:05.325Z,101965.83
2018-10-18T13:02:33.469Z,101959.36
2018-10-18T13:05:01.530Z,101964.15
2018-10-18T13:07:29.667Z,101965.63
2018-10-18T13:09:57.797Z,101962.00
2018-10-18T13:12:26.398Z,101965.93
2018-10-18T13:14:54.320Z,101975.50
2018-10-18T13:17:22.432Z,101974.36
2018-10-18T13:19:50.569Z,101977.20
2018-10-18T13:22:18.693Z,101975.38
2018-10-18T13:24:47.067Z,101978.14
2018-10-18T13:27:15.197Z,101966.15
2018-10-18T13:29:43.320Z,101964.75
2018-10-18T13:32:11.559Z,101970.38
2018-10-18T13:34:39.582Z,101969.81
2018-10-18T13:37:07.709Z,101968.75
2018-10-18T13:39:36.083Z,101971.05
2018-10-18T13:42:05.443Z,101973.56
2018-10-18T13:44:33.509Z,101972.83
2018-10-18T13:47:01.644Z,101968.87
2018-10-18T13:49:29.805Z,101972.39
2018-10-18T13:51:57.937Z,101969.52
2018-10-18T13:54:26.698Z,101971.33
2018-10-18T13:56:54.828Z,101972.00
2018-10-18T13:59:34.335Z,101972.55
2018-10-18T14:02:02.515Z,101967.82
2018-10-18T14:04:30.617Z,101969.00
2018-10-18T14:06:58.764Z,101968.27
2018-10-18T14:09:27.185Z,101962.30
2018-10-18T14:11:56.167Z,101964.44
2018-10-18T14:14:24.294Z,101962.74
2018-10-18T14:16:52.431Z,101961.72
2018-10-18T14:19:20.560Z,101963.77
2018-10-18T14:21:48.726Z,101963.69
2018-10-18T14:24:16.851Z,101957.53
2018-10-18T14:26:45.001Z,101962.30
2018-10-18T14:29:13.247Z,101963.01
2018-10-18T14:31:41.253Z,101959.75
2018-10-18T14:34:09.598Z,101953.36
2018-10-18T14:36:37.751Z,101961.03
2018-10-18T14:39:07.248Z,101959.80
2018-10-18T14:41:35.365Z,101956.55
2018-10-18T14:44:04.609Z,101955.70
2018-10-18T14:46:32.654Z,101953.02
2018-10-18T14:49:00.889Z,101953.64
2018-10-18T14:51:29.020Z,101953.06
2018-10-18T14:53:57.157Z,101949.64
2018-10-18T14:56:25.528Z,101951.31
2018-10-18T14:58:53.704Z,101945.41
2018-10-18T15:01:21.816Z,101945.88
2018-10-18T15:03:49.981Z,101950.80
2018-10-18T15:06:18.097Z,101949.02
2018-10-18T15:08:46.237Z,101950.92
2018-10-18T15:11:14.523Z,101949.37
2018-10-18T15:13:42.508Z,101950.42
2018-10-18T15:16:10.625Z,101949.60
2018-10-18T15:18:38.756Z,101948.91
2018-10-18T15:21:06.874Z,101947.05
2018-10-18T15:23:34.998Z,101948.80
2018-10-18T15:26:03.157Z,101950.08
2018-10-18T15:28:31.267Z,101959.89
2018-10-18T15:30:59.406Z,101949.86
2018-10-18T15:36:26.932Z,101953.11
2018-10-18T15:38:55.296Z,101958.77
2018-10-18T15:41:23.209Z,101955.17
2018-10-18T15:43:51.334Z,101960.83
2018-10-18T15:46:19.797Z,101958.08
2018-10-18T15:48:48.739Z,101957.03
2018-10-18T15:51:17.023Z,101963.97
2018-10-18T15:53:45.115Z,101959.78
2018-10-18T15:56:13.132Z,101960.67
2018-10-18T15:58:41.256Z,101958.92
2018-10-18T16:01:09.399Z,101962.72
2018-10-18T16:03:37.533Z,101964.73
2018-10-18T16:06:05.768Z,101963.83
2018-10-18T16:08:34.075Z,101967.66
2018-10-18T16:11:02.196Z,101969.45
2018-10-18T16:13:30.272Z,101975.87
2018-10-18T16:15:58.440Z,101977.11
2018-10-18T16:18:26.567Z,101980.24
2018-10-18T16:20:54.704Z,101977.09
2018-10-18T16:23:22.829Z,101984.09
2018-10-18T16:25:51.048Z,101984.66
2018-10-18T16:28:19.160Z,101987.88
2018-10-18T16:30:47.279Z,101989.19
2018-10-18T16:33:15.412Z,101995.49
2018-10-18T16:35:43.576Z,102001.45
2018-10-18T16:38:11.777Z,102005.86
2018-10-18T16:40:40.091Z,102005.98
2018-10-18T16:43:08.343Z,102013.19
2018-10-18T16:45:36.460Z,102006.48
2018-10-18T16:48:04.787Z,102012.29
2018-10-18T16:50:32.924Z,102011.58
2018-10-18T16:53:01.162Z,102018.55
2018-10-18T16:55:29.731Z,102012.26
2018-10-18T16:57:58.130Z,102017.27
2018-10-18T17:00:48.888Z,102021.10
2018-10-18T17:03:17.025Z,102023.19
2018-10-18T17:05:45.201Z,102032.69
2018-10-18T17:08:13.380Z,102026.77
2018-10-18T17:10:41.445Z,102028.20
2018-10-18T17:13:09.585Z,102032.58
2018-10-18T17:15:37.731Z,102032.69
2018-10-18T17:18:06.015Z,102036.50
2018-10-18T17:20:35.172Z,102042.52
2018-10-18T17:23:03.413Z,102041.08
2018-10-18T17:25:31.563Z,102047.91
2018-10-18T17:27:59.689Z,102048.73
2018-10-18T17:30:28.628Z,102050.80
2018-10-18T17:32:56.820Z,102052.83
2018-10-18T17:35:24.947Z,102051.88
2018-10-18T17:37:53.319Z,102053.64
2018-10-18T17:40:21.630Z,102055.31
2018-10-18T17:42:50.360Z,102063.17
2018-10-18T17:45:18.490Z,102057.21
2018-10-18T17:47:46.637Z,102064.78
2018-10-18T17:50:14.821Z,102061.86
2018-10-18T17:52:43.142Z,102059.58
2018-10-18T17:55:11.586Z,102063.31
2018-10-18T17:57:39.744Z,102066.67
2018-10-18T18:00:09.864Z,102063.08
2018-10-18T18:02:38.144Z,102066.80
2018-10-18T18:05:07.225Z,102066.92
2018-10-18T18:07:35.515Z,102064.95
2018-10-18T18:10:03.771Z,102070.55
2018-10-18T18:12:31.885Z,102071.41
2018-10-18T18:15:00.028Z,102069.70
2018-10-18T18:17:28.159Z,102076.05
2018-10-18T18:19:56.304Z,102079.40
2018-10-18T18:22:24.437Z,102078.08
2018-10-18T18:24:52.642Z,102083.28
2018-10-18T18:27:21.175Z,102083.92
2018-10-18T18:29:49.317Z,102088.94
2018-10-18T18:32:17.449Z,102088.23
2018-10-18T18:34:45.604Z,102093.03
2018-10-18T18:37:13.740Z,102096.38
2018-10-18T18:39:41.884Z,102094.75
2018-10-18T18:42:10.014Z,102099.00
2018-10-18T18:44:39.285Z,102099.17
2018-10-18T18:47:07.408Z,102097.64
2018-10-18T18:49:35.543Z,102100.58
2018-10-18T18:52:04.560Z,102097.41
2018-10-18T18:54:32.713Z,102098.95
2018-10-18T18:57:00.958Z,102104.90
2018-10-18T18:59:29.073Z,102105.98
2018-10-18T19:01:57.220Z,102104.89
2018-10-18T19:04:25.380Z,102119.38
2018-10-18T19:06:53.521Z,102116.05
2018-10-18T19:09:21.672Z,102118.83
2018-10-18T19:11:49.816Z,102112.13
2018-10-18T19:14:17.939Z,102114.03
2018-10-18T19:16:46.072Z,102119.97
2018-10-18T19:19:14.200Z,102121.05
2018-10-18T19:21:42.365Z,102122.48
2018-10-18T19:24:11.412Z,102123.56
2018-10-18T19:26:39.536Z,102128.18
2018-10-18T19:29:07.694Z,102123.66
2018-10-18T19:31:35.833Z,102133.97
2018-10-18T19:34:04.977Z,102129.48
2018-10-18T19:36:33.112Z,102127.11
2018-10-18T19:39:01.614Z,102128.17
2018-10-18T19:41:29.745Z,102127.44
2018-10-18T19:43:57.923Z,102129.77
2018-10-18T19:46:26.054Z,102128.13
2018-10-18T19:48:54.169Z,102125.80
2018-10-18T19:51:22.297Z,102128.17
2018-10-18T19:53:50.488Z,102127.92
2018-10-18T19:56:18.626Z,102130.66
2018-10-18T19:58:46.736Z,102132.13
2018-10-18T20:01:14.904Z,102132.25
2018-10-18T20:03:43.025Z,102133.84
2018-10-18T20:06:11.156Z,102134.37
2018-10-18T20:08:39.288Z,102134.64
2018-10-18T20:11:07.478Z,102129.94
2018-10-18T20:13:35.685Z,102135.25
2018-10-18T20:16:05.115Z,102137.94
2018-10-18T20:18:33.301Z,102137.77
2018-10-18T20:21:01.463Z,102140.12
2018-10-18T20:23:29.796Z,102139.80
2018-10-18T20:25:58.094Z,102140.23
2018-10-18T20:28:26.059Z,102147.38
2018-10-18T20:30:54.204Z,102147.49
2018-10-18T20:33:22.347Z,102146.19
2018-10-18T20:35:50.485Z,102149.73
2018-10-18T20:38:18.616Z,102147.98
2018-10-18T20:40:46.742Z,102147.12
2018-10-18T20:43:14.871Z,102148.87
2018-10-18T20:45:43.028Z,102147.49
2018-10-18T20:48:11.266Z,102149.21
2018-10-18T20:50:40.215Z,102150.63
2018-10-18T20:53:08.420Z,102150.26
2018-10-18T20:55:36.577Z,102147.64
2018-10-18T20:58:04.729Z,102149.92
2018-10-18T21:00:32.856Z,102148.36
2018-10-18T21:03:01.065Z,102145.05
2018-10-18T21:05:29.148Z,102141.50
2018-10-18T21:07:57.273Z,102142.50
2018-10-18T21:10:25.656Z,102143.92
2018-10-18T21:12:53.812Z,102144.97
2018-10-18T21:15:21.939Z,102145.91
2018-10-18T21:17:50.276Z,102146.47
2018-10-18T21:20:18.418Z,102146.17
2018-10-18T21:22:46.614Z,102144.08
2018-10-18T21:25:14.740Z,102148.56
2018-10-18T21:27:42.954Z,102149.48
2018-10-18T21:30:11.105Z,102149.08
2018-10-18T21:32:39.246Z,102143.55
2018-10-18T21:35:07.751Z,102144.56
2018-10-18T21:37:36.059Z,102144.23
2018-10-18T21:40:04.825Z,102135.23
2018-10-18T21:42:33.037Z,102140.45
2018-10-18T21:45:02.268Z,102144.03
2018-10-18T21:47:30.619Z,102149.58
2018-10-18T21:49:58.736Z,102145.84
2018-10-18T21:52:26.862Z,102144.66
2018-10-18T21:54:55.046Z,102142.52
2018-10-18T21:57:23.193Z,102142.63
2018-10-18T21:59:51.503Z,102148.30
2018-10-18T22:02:19.621Z,102147.99
2018-10-18T22:04:47.786Z,102144.97
2018-10-18T22:07:16.051Z,102143.59
2018-10-18T22:09:44.136Z,102145.77
2018-10-18T22:12:12.280Z,102139.16
2018-10-18T22:14:40.405Z,102137.82
2018-10-18T22:17:08.651Z,102139.91
2018-10-18T22:19:36.732Z,102134.28
2018-10-18T22:22:05.199Z,102146.03
2018-10-18T22:24:33.343Z,102135.14
2018-10-18T22:27:01.674Z,102139.13
2018-10-18T22:29:29.887Z,102137.30
2018-10-18T22:31:58.021Z,102137.16
2018-10-18T22:34:26.186Z,102138.87
2018-10-18T22:36:54.326Z,102133.17
2018-10-18T22:39:22.757Z,102132.54
2018-10-18T22:41:50.931Z,102129.78
2018-10-18T22:44:19.220Z,102125.83
2018-10-18T22:46:47.800Z,102126.98
2018-10-18T22:49:15.933Z,102124.78
2018-10-18T22:51:44.057Z,102122.17
2018-10-18T22:54:12.249Z,102122.55
2018-10-18T22:56:40.371Z,102116.40
2018-10-18T22:59:08.555Z,102113.67
2018-10-18T23:01:36.703Z,102116.28
2018-10-18T23:04:05.253Z,102113.23
2018-10-18T23:06:33.392Z,102112.74
2018-10-18T23:09:01.585Z,102114.05
2018-10-18T23:11:29.679Z,102117.14
2018-10-18T23:13:58.424Z,102116.28
2018-10-18T23:16:26.606Z,102114.98
2018-10-18T23:18:54.755Z,102106.09
2018-10-18T23:21:22.898Z,102110.88
2018-10-18T23:23:51.121Z,102107.41
2018-10-18T23:26:19.245Z,102107.03
2018-10-18T23:28:47.372Z,102110.61
2018-10-18T23:31:15.511Z,102108.89
2018-10-18T23:33:43.707Z,102109.90
2018-10-18T23:36:11.847Z,102105.23
2018-10-18T23:38:39.989Z,102103.30
2018-10-18T23:41:08.178Z,102105.38
2018-10-18T23:43:36.953Z,102102.33
2018-10-18T23:46:05.848Z,102097.55
2018-10-18T23:48:33.996Z,102091.92
2018-10-18T23:51:02.136Z,102092.59
2018-10-18T23:53:30.276Z,102092.25
2018-10-18T23:55:58.457Z,102094.48
2018-10-18T23:58:26.674Z,102090.68
